Judi M. — WCX8376 — position and weather

sailwx.info

Track history (hours):
 
Tides and Currents Weather Stations Pressure Air Temp Water Temp Dewpoint Dewpoint Depression Visibility Wind Speed Wind Dir Waves Ship Positions

Judi M.

More information available from US FCC via Universal Licensing System and Coast Guard Vessel Documentation Center.

Last reported at 2014-Sep-16 18:33 UTC. Time now 2014-Sep-16 23:35 UTC.
Position N 48°06' W 122°48'.

Length 29 m; draft 4 m.

Type: Tow > 200 m length. MMSI: 366740920.

Date/timePositionNaut miles runAvg speedWind from/ knotsBaromVisibWave heightAir tempDewpointWater temp
2014-Sep-16 18:33N 48°06' W 122°48'0 0.0
2014-Sep-16 17:31N 48°06' W 122°48'0 0.0
2014-Sep-16 16:33N 48°06' W 122°48'0 0.0
2014-Sep-16 15:22N 48°06' W 122°48'0 0.0
2014-Sep-16 14:30N 48°06' W 122°48'0 0.0
2014-Sep-16 13:11N 48°06' W 122°48'0 0.0
2014-Sep-16 12:33N 48°06' W 122°48'2 1.9
2014-Sep-16 11:25N 48°06' W 122°44'3 6.3
2014-Sep-16 10:53N 48°07' W 122°40'410.0
2014-Sep-16 10:27N 48°03' W 122°38'3 9.8
2014-Sep-16 10:07N 47°60' W 122°36'5 9.1
2014-Sep-16 09:33N 47°56' W 122°30'0 7.6
2014-Sep-16 09:32N 47°56' W 122°30'8 8.1
2014-Sep-16 08:33N 47°49' W 122°26'0 8.2
2014-Sep-16 08:32N 47°48' W 122°26'8 7.9
2014-Sep-16 07:33N 47°41' W 122°27'0 7.5
2014-Sep-16 07:31N 47°41' W 122°27'6 6.5
2014-Sep-16 06:33N 47°35' W 122°22'0 5.9
2014-Sep-16 06:31N 47°35' W 122°22'0 0.0
2014-Sep-14 03:33N 47°36' W 122°22'5 5.5
2014-Sep-14 02:33N 47°39' W 122°28'7 7.5
2014-Sep-14 01:33N 47°47' W 122°27'21 1.4
2014-Sep-13 11:10N 48°05' W 122°40'4 6.5
2014-Sep-13 10:33N 48°02' W 122°38'7 7.1
2014-Sep-13 09:33N 47°56' W 122°30'8 7.5
2014-Sep-13 08:33N 47°49' W 122°27'8 8.2
2014-Sep-13 07:33N 47°41' W 122°27'7 6.8
2014-Sep-13 06:33N 47°35' W 122°22'1 0.8
2014-Sep-13 05:33N 47°34' W 122°22'0 0.0
2014-Sep-13 04:33N 47°34' W 122°22'0 0.0
2014-Sep-13 03:33N 47°34' W 122°22'0 0.0
2014-Sep-13 02:33N 47°34' W 122°22'0 0.0
2014-Sep-13 01:33N 47°34' W 122°22'0 0.0
2014-Sep-13 00:33N 47°34' W 122°22'0 0.0
2014-Sep-12 23:33N 47°34' W 122°22'0 0.0
2014-Sep-12 22:33N 47°34' W 122°22'0 0.0
2014-Sep-12 21:33N 47°34' W 122°22'0 0.0
2014-Sep-12 20:33N 47°34' W 122°22'0 0.0
2014-Sep-12 19:33N 47°34' W 122°22'0 0.0
2014-Sep-12 18:33N 47°34' W 122°22'0 0.0
2014-Sep-12 17:33N 47°34' W 122°22'0 0.0
2014-Sep-12 16:33N 47°34' W 122°22'0 0.0
2014-Sep-12 15:33N 47°34' W 122°22'0 0.0
2014-Sep-12 14:33N 47°34' W 122°22'0 0.0
2014-Sep-12 13:33N 47°34' W 122°22'0 0.0
2014-Sep-12 12:33N 47°34' W 122°22'0 0.0
2014-Sep-12 11:33N 47°34' W 122°22'2 1.6
2014-Sep-12 10:34N 47°36' W 122°23'7 6.5
2014-Sep-12 09:33N 47°41' W 122°28'7 7.1
2014-Sep-12 08:33N 47°48' W 122°28'7 6.9
2014-Sep-12 07:33N 47°55' W 122°30'5 5.1
2014-Sep-12 06:33N 47°58' W 122°36'4 3.7
2014-Sep-12 05:29N 48°02' W 122°39'14 4.5
2014-Sep-12 02:22N 48°11' W 122°55'6 7.4
2014-Sep-12 01:33N 48°12' W 123°04'8 8.4
2014-Sep-12 00:33N 48°09' W 123°16'7 7.5
2014-Sep-11 23:33N 48°08' W 123°27'1 0.6
2014-Sep-11 22:33N 48°08' W 123°28'0 0.0
2014-Sep-11 21:33N 48°08' W 123°28'0 0.0
2014-Sep-11 20:33N 48°08' W 123°28'0 0.0
2014-Sep-11 19:33N 48°08' W 123°28'0 0.0
2014-Sep-11 18:33N 48°08' W 123°28'0 0.0
2014-Sep-11 17:33N 48°08' W 123°28'0 0.0
2014-Sep-11 16:33N 48°08' W 123°28'0 0.0
2014-Sep-11 15:33N 48°08' W 123°28'0 0.0
2014-Sep-11 14:33N 48°08' W 123°28'1 0.8
2014-Sep-11 13:33N 48°08' W 123°26'6 6.3
2014-Sep-11 12:33N 48°09' W 123°17'8 7.8
2014-Sep-11 11:32N 48°13' W 123°07'8 8.6
2014-Sep-11 10:33N 48°12' W 122°54'10 7.8
2014-Sep-11 09:14N 48°08' W 122°40'7 9.3
2014-Sep-11 08:30N 48°02' W 122°37'9 9.2
2014-Sep-11 07:33N 47°55' W 122°29'9 9.0
2014-Sep-11 06:33N 47°46' W 122°26'8 8.3
2014-Sep-11 05:33N 47°38' W 122°26'5 0.2
2014-Sep-10 00:32N 47°34' W 122°22'2 2.5
2014-Sep-09 23:33N 47°36' W 122°24'7 6.6
2014-Sep-09 22:33N 47°42' W 122°28'7 7.3
2014-Sep-09 21:33N 47°50' W 122°28'8 7.5
2014-Sep-09 20:33N 47°56' W 122°33'8 7.7
2014-Sep-09 19:33N 48°03' W 122°39'8 7.1
2014-Sep-09 18:22N 48°10' W 122°46'12 6.3
2014-Sep-09 16:31N 48°22' W 122°46'9 9.3
2014-Sep-09 15:33N 48°31' W 122°45'9 8.7
2014-Sep-09 14:33N 48°39' W 122°44'7 6.6
2014-Sep-09 13:33N 48°45' W 122°48'7 7.1
2014-Sep-09 12:33N 48°49' W 122°57'7 6.7
2014-Sep-09 11:33N 48°53' W 123°06'7 6.7
2014-Sep-09 10:33N 48°57' W 123°14'7 6.5
2014-Sep-09 09:33N 49°01' W 123°21'7 6.5
2014-Sep-09 08:33N 49°06' W 123°27'7 7.5
2014-Sep-09 07:33N 49°14' W 123°28'7 6.8
2014-Sep-09 06:33N 49°21' W 123°27'7 6.8
2014-Sep-09 05:33N 49°27' W 123°28'4 0.9
2014-Sep-09 01:16N 49°31' W 123°29'1 0.1
2014-Sep-08 14:13N 49°31' W 123°29'3 5.2
2014-Sep-08 13:32N 49°27' W 123°28'7 7.1
2014-Sep-08 12:33N 49°20' W 123°27'7 6.7
2014-Sep-08 11:33N 49°13' W 123°27'6 6.3
2014-Sep-08 10:33N 49°08' W 123°24'7 6.8
2014-Sep-08 09:33N 49°02' W 123°17'8 7.6
2014-Sep-08 08:33N 48°57' W 123°09'7 7.2
2014-Sep-08 07:33N 48°53' W 123°00'7 7.2
2014-Sep-08 06:33N 48°48' W 122°52'8 7.8
2014-Sep-08 05:33N 48°42' W 122°44'6 6.4
2014-Sep-08 04:33N 48°36' W 122°45'7 6.5
2014-Sep-08 03:33N 48°30' W 122°44'8 7.6
2014-Sep-08 02:30N 48°22' W 122°45'16 8.1
2014-Sep-08 00:33N 48°06' W 122°39'8 7.8
2014-Sep-07 23:33N 47°59' W 122°35'8 8.4
2014-Sep-07 22:34N 47°52' W 122°28'9 8.8
2014-Sep-07 21:33N 47°43' W 122°27'7 7.4
2014-Sep-07 20:33N 47°37' W 122°23'  
Track history (hours):
 
Tides and Currents Weather Stations Pressure Air Temp Water Temp Dewpoint Dewpoint Depression Visibility Wind Speed Wind Dir Waves Ship Positions

Judi M.

More information available from US FCC via Universal Licensing System and Coast Guard Vessel Documentation Center.

Last reported at 2014-Sep-16 18:33 UTC. Time now 2014-Sep-16 23:35 UTC.
Position N 48°06' W 122°48'.

Length 29 m; draft 4 m.

Type: Tow > 200 m length. MMSI: 366740920.

Date/timePositionNaut miles runAvg speedWind from/ knotsBaromVisibWave heightAir tempDewpointWater temp
2014-Sep-16 18:33N 48°06' W 122°48'0 0.0
2014-Sep-16 17:31N 48°06' W 122°48'0 0.0
2014-Sep-16 16:33N 48°06' W 122°48'0 0.0
2014-Sep-16 15:22N 48°06' W 122°48'0 0.0
2014-Sep-16 14:30N 48°06' W 122°48'0 0.0
2014-Sep-16 13:11N 48°06' W 122°48'0 0.0
2014-Sep-16 12:33N 48°06' W 122°48'2 1.9
2014-Sep-16 11:25N 48°06' W 122°44'3 6.3
2014-Sep-16 10:53N 48°07' W 122°40'410.0
2014-Sep-16 10:27N 48°03' W 122°38'3 9.8
2014-Sep-16 10:07N 47°60' W 122°36'5 9.1
2014-Sep-16 09:33N 47°56' W 122°30'0 7.6
2014-Sep-16 09:32N 47°56' W 122°30'8 8.1
2014-Sep-16 08:33N 47°49' W 122°26'0 8.2
2014-Sep-16 08:32N 47°48' W 122°26'8 7.9
2014-Sep-16 07:33N 47°41' W 122°27'0 7.5
2014-Sep-16 07:31N 47°41' W 122°27'6 6.5
2014-Sep-16 06:33N 47°35' W 122°22'0 5.9
2014-Sep-16 06:31N 47°35' W 122°22'0 0.0
2014-Sep-14 03:33N 47°36' W 122°22'5 5.5
2014-Sep-14 02:33N 47°39' W 122°28'7 7.5
2014-Sep-14 01:33N 47°47' W 122°27'21 1.4
2014-Sep-13 11:10N 48°05' W 122°40'4 6.5
2014-Sep-13 10:33N 48°02' W 122°38'7 7.1
2014-Sep-13 09:33N 47°56' W 122°30'8 7.5
2014-Sep-13 08:33N 47°49' W 122°27'8 8.2
2014-Sep-13 07:33N 47°41' W 122°27'7 6.8
2014-Sep-13 06:33N 47°35' W 122°22'1 0.8
2014-Sep-13 05:33N 47°34' W 122°22'0 0.0
2014-Sep-13 04:33N 47°34' W 122°22'0 0.0
2014-Sep-13 03:33N 47°34' W 122°22'0 0.0
2014-Sep-13 02:33N 47°34' W 122°22'0 0.0
2014-Sep-13 01:33N 47°34' W 122°22'0 0.0
2014-Sep-13 00:33N 47°34' W 122°22'0 0.0
2014-Sep-12 23:33N 47°34' W 122°22'0 0.0
2014-Sep-12 22:33N 47°34' W 122°22'0 0.0
2014-Sep-12 21:33N 47°34' W 122°22'0 0.0
2014-Sep-12 20:33N 47°34' W 122°22'0 0.0
2014-Sep-12 19:33N 47°34' W 122°22'0 0.0
2014-Sep-12 18:33N 47°34' W 122°22'0 0.0
2014-Sep-12 17:33N 47°34' W 122°22'0 0.0
2014-Sep-12 16:33N 47°34' W 122°22'0 0.0
2014-Sep-12 15:33N 47°34' W 122°22'0 0.0
2014-Sep-12 14:33N 47°34' W 122°22'0 0.0
2014-Sep-12 13:33N 47°34' W 122°22'0 0.0
2014-Sep-12 12:33N 47°34' W 122°22'0 0.0
2014-Sep-12 11:33N 47°34' W 122°22'2 1.6
2014-Sep-12 10:34N 47°36' W 122°23'7 6.5
2014-Sep-12 09:33N 47°41' W 122°28'7 7.1
2014-Sep-12 08:33N 47°48' W 122°28'7 6.9
2014-Sep-12 07:33N 47°55' W 122°30'5 5.1
2014-Sep-12 06:33N 47°58' W 122°36'4 3.7
2014-Sep-12 05:29N 48°02' W 122°39'14 4.5
2014-Sep-12 02:22N 48°11' W 122°55'6 7.4
2014-Sep-12 01:33N 48°12' W 123°04'8 8.4
2014-Sep-12 00:33N 48°09' W 123°16'7 7.5
2014-Sep-11 23:33N 48°08' W 123°27'1 0.6
2014-Sep-11 22:33N 48°08' W 123°28'0 0.0
2014-Sep-11 21:33N 48°08' W 123°28'0 0.0
2014-Sep-11 20:33N 48°08' W 123°28'0 0.0
2014-Sep-11 19:33N 48°08' W 123°28'0 0.0
2014-Sep-11 18:33N 48°08' W 123°28'0 0.0
2014-Sep-11 17:33N 48°08' W 123°28'0 0.0
2014-Sep-11 16:33N 48°08' W 123°28'0 0.0
2014-Sep-11 15:33N 48°08' W 123°28'0 0.0
2014-Sep-11 14:33N 48°08' W 123°28'1 0.8
2014-Sep-11 13:33N 48°08' W 123°26'6 6.3
2014-Sep-11 12:33N 48°09' W 123°17'8 7.8
2014-Sep-11 11:32N 48°13' W 123°07'8 8.6
2014-Sep-11 10:33N 48°12' W 122°54'10 7.8
2014-Sep-11 09:14N 48°08' W 122°40'7 9.3
2014-Sep-11 08:30N 48°02' W 122°37'9 9.2
2014-Sep-11 07:33N 47°55' W 122°29'9 9.0
2014-Sep-11 06:33N 47°46' W 122°26'8 8.3
2014-Sep-11 05:33N 47°38' W 122°26'5 0.2
2014-Sep-10 00:32N 47°34' W 122°22'2 2.5
2014-Sep-09 23:33N 47°36' W 122°24'7 6.6
2014-Sep-09 22:33N 47°42' W 122°28'7 7.3
2014-Sep-09 21:33N 47°50' W 122°28'8 7.5
2014-Sep-09 20:33N 47°56' W 122°33'8 7.7
2014-Sep-09 19:33N 48°03' W 122°39'8 7.1
2014-Sep-09 18:22N 48°10' W 122°46'12 6.3
2014-Sep-09 16:31N 48°22' W 122°46'9 9.3
2014-Sep-09 15:33N 48°31' W 122°45'9 8.7
2014-Sep-09 14:33N 48°39' W 122°44'7 6.6
2014-Sep-09 13:33N 48°45' W 122°48'7 7.1
2014-Sep-09 12:33N 48°49' W 122°57'7 6.7
2014-Sep-09 11:33N 48°53' W 123°06'7 6.7
2014-Sep-09 10:33N 48°57' W 123°14'7 6.5
2014-Sep-09 09:33N 49°01' W 123°21'7 6.5
2014-Sep-09 08:33N 49°06' W 123°27'7 7.5
2014-Sep-09 07:33N 49°14' W 123°28'7 6.8
2014-Sep-09 06:33N 49°21' W 123°27'7 6.8
2014-Sep-09 05:33N 49°27' W 123°28'4 0.9
2014-Sep-09 01:16N 49°31' W 123°29'1 0.1
2014-Sep-08 14:13N 49°31' W 123°29'3 5.2
2014-Sep-08 13:32N 49°27' W 123°28'7 7.1
2014-Sep-08 12:33N 49°20' W 123°27'7 6.7
2014-Sep-08 11:33N 49°13' W 123°27'6 6.3
2014-Sep-08 10:33N 49°08' W 123°24'7 6.8
2014-Sep-08 09:33N 49°02' W 123°17'8 7.6
2014-Sep-08 08:33N 48°57' W 123°09'7 7.2
2014-Sep-08 07:33N 48°53' W 123°00'7 7.2
2014-Sep-08 06:33N 48°48' W 122°52'8 7.8
2014-Sep-08 05:33N 48°42' W 122°44'6 6.4
2014-Sep-08 04:33N 48°36' W 122°45'7 6.5
2014-Sep-08 03:33N 48°30' W 122°44'8 7.6
2014-Sep-08 02:30N 48°22' W 122°45'16 8.1
2014-Sep-08 00:33N 48°06' W 122°39'8 7.8
2014-Sep-07 23:33N 47°59' W 122°35'8 8.4
2014-Sep-07 22:34N 47°52' W 122°28'9 8.8
2014-Sep-07 21:33N 47°43' W 122°27'7 7.4
2014-Sep-07 20:33N 47°37' W 122°23'  

Dump ship's entire track history